RNO weather

Reno Tahoe International Airport
Reno, Nevada, United States

Public forecast

Using degrees Fahrenheit for public forecast. Weather courtesy of forecast.io.

METAR (pilot weather report)

Retrieved 2019/06/19 17:55 UTC (46 minutes ago):

KRNO 191755Z 00000KT 10SM CLR 27/04 A3009 RMK AO2 SLP128 T02720044 10278 20161 58014

TAF (pilot weather forecast)

Retrieved 2019/06/19 19:42 UTC (0 seconds ago):

TAF KRNO 191840Z 1919/2018 VRB04KT P6SM SKC FM192000 31015G25KT P6SM SKC FM200400 32011KT P6SM SKC FM200800 20006KT P6SM SKC